Nearby METAR Reports

 

KPMP - Pompano Beach, Florida, USA
Distance from station: NNW 3mi, 5km
Updated: 04/07/2020 7:53am
Few Clouds
Few Clouds
 Wind from ESE
Wind: ESE 5 mph , 7 km/h
Temperature: 75°F , 24°C
Dew Point: 72°F , 22°C
Humidity: 89%
Barometer: 30.06 inHg , 1017.9 hPa
Clouds: Few Clouds
Visibility: 10 miles , 16 km
Cloud details: Few Clouds 2000 ft
2020/04/07 11:53 KPMP 071153Z 11004KT 10SM FEW020 24/22 A3006 RMK AO2 SLP180 70063 T02440217 10244 20233 53016
KFXE - Ft Lauderd/Exec, Florida, USA
Distance from station: W 6mi, 9km
Updated: 04/07/2020 8:36am
Partly cloudy
Partly cloudy
 Wind from E
Wind: E 9 mph , 15 km/h
Temperature: 79°F , 26°C
Dew Point: 70°F , 21°C
Humidity: 74%
Barometer: 30.07 inHg , 1018.3 hPa
Clouds: Partly cloudy
Visibility: 10 miles , 16 km
Cloud details: Partly cloudy 2200 ft
2020/04/07 12:36 KFXE 071236Z 10008KT 10SM SCT022 26/21 A3007 RMK AO2 T02560211
 
KFLL - Ft Lauderd/Holly, Florida, USA
Distance from station: SSW 11mi, 17km
Updated: 04/07/2020 7:53am
Few Clouds
Few Clouds
 Wind from ESE
Wind: ESE 9 mph , 15 km/h
Temperature: 77°F , 25°C
Dew Point: 70°F , 21°C
Humidity: 79%
Barometer: 30.05 inHg , 1017.6 hPa
Clouds: Few Clouds
Visibility: 10 miles , 16 km
Cloud details: Few Clouds 2000 ft
Few Clouds 8000 ft
2020/04/07 11:53 KFLL 071153Z 11008KT 10SM FEW020 FEW080 25/21 A3005 RMK AO2 SLP175 70001 T02500211 10250 20239 53015
KBCT - Boca Raton, Florida, USA
Distance from station: N 12mi, 19km
Updated: 04/07/2020 7:47am
Few Clouds
Few Clouds
 Wind from calm
Wind: Calm
Temperature: 72°F , 22°C
Dew Point: 70°F , 21°C
Humidity: 94%
Barometer: 30.06 inHg , 1017.9 hPa
Clouds: Few Clouds
Visibility: 10 miles , 16 km
Cloud details: Few Clouds 2000 ft
2020/04/07 11:47 KBCT 071147Z 00000KT 10SM FEW020 22/21 A3006
 
KHWO - Hollywood, Florida, USA
Distance from station: SSW 17mi, 27km
Updated: 04/07/2020 7:53am
Mostly cloudy
Mostly cloudy
 Wind from ENE
Wind: ENE 3 mph , 6 km/h
Temperature: 77°F , 25°C
Dew Point: 72°F , 22°C
Humidity: 83%
Barometer: 30.07 inHg , 1018.3 hPa
Clouds: Mostly cloudy
Visibility: 10 miles , 16 km
Cloud details: Partly cloudy 1900 ft
Partly cloudy 2400 ft
Mostly cloudy 4100 ft
2020/04/07 11:53 KHWO 071153Z 07003KT 10SM SCT019 SCT024 BKN041 25/22 A3007 RMK AO2 SLP181 T02500217 10250 20228 51014
KOPF - Miami/Opa Locka, Florida, USA
Distance from station: SSW 24mi, 38km
Updated: 04/07/2020 7:53am
Few Clouds
Few Clouds
 Wind from ENE
Wind: ENE 5 mph , 7 km/h
Temperature: 75°F , 24°C
Dew Point: 70°F , 21°C
Humidity: 83%
Barometer: 30.06 inHg , 1017.9 hPa
Clouds: Few Clouds
Visibility: 10 miles , 16 km
Cloud details: Few Clouds 5000 ft
2020/04/07 11:53 KOPF 071153Z 06004KT 10SM FEW050 24/21 A3006 RMK AO2 SLP179 T02390211 10244 20228 53014
 
KMIA - Miami, Florida, USA
Distance from station: SSW 31mi, 50km
Updated: 04/07/2020 7:53am
Partly cloudy
Partly cloudy
 Wind from E
Wind: E 6 mph , 9 km/h
Temperature: 79°F , 26°C
Dew Point: 72°F , 22°C
Humidity: 79%
Barometer: 30.06 inHg , 1017.9 hPa
Clouds: Partly cloudy
Visibility: 10 miles , 16 km
Cloud details: Few Clouds 2000 ft
Partly cloudy 5500 ft
2020/04/07 11:53 KMIA 071153Z 10005KT 10SM FEW020 SCT055 26/22 A3006 RMK AO2 SLP177 T02560217 10256 20244 53015
KPBI - West Palm Beach, Florida, USA
Distance from station: N 33mi, 52km
Updated: 04/07/2020 7:53am
Partly cloudy
Partly cloudy
 Wind from E
Wind: E 7 mph , 11 km/h
Temperature: 77°F , 25°C
Dew Point: 70°F , 21°C
Humidity: 79%
Barometer: 30.08 inHg , 1018.6 hPa
Clouds: Partly cloudy
Visibility: 10 miles , 16 km
Cloud details: Partly cloudy 1800 ft
Partly cloudy 3500 ft
Partly cloudy 6500 ft
2020/04/07 11:53 KPBI 071153Z 08006KT 10SM SCT018 SCT035 SCT065 25/21 A3008 RMK AO2 SLP185 T02500206 10256 20244 53016 $
 
KTMB - Miami/Tamiami, Florida, USA
Distance from station: SSW 44mi, 71km
Updated: 04/07/2020 7:53am
Mostly cloudy
Mostly cloudy
 Wind from E
Wind: E 6 mph , 9 km/h
Temperature: 77°F , 25°C
Dew Point: 72°F , 22°C
Humidity: 83%
Barometer: 30.05 inHg , 1017.6 hPa
Clouds: Mostly cloudy
Visibility: 10 miles , 16 km
Cloud details: Partly cloudy 2500 ft
Mostly cloudy 3600 ft
2020/04/07 11:53 KTMB 071153Z 09005KT 10SM SCT025 BKN036 25/22 A3005 RMK AO2 SLP175 T02500222 10250 20239 53015